sensor_id;sensor_type;location;lat;lon;timestamp;temperature;humidity
9193;DHT22;4631;49.296;10.560;2023-02-01T00:01:29;3.20;99.90
9193;DHT22;4631;49.296;10.560;2023-02-01T00:03:55;3.20;99.90
9193;DHT22;4631;49.296;10.560;2023-02-01T00:06:23;3.20;99.90
9193;DHT22;4631;49.296;10.560;2023-02-01T00:08:51;3.20;99.90
9193;DHT22;4631;49.296;10.560;2023-02-01T00:11:18;3.30;99.90
9193;DHT22;4631;49.296;10.560;2023-02-01T00:13:45;3.30;99.90
9193;DHT22;4631;49.296;10.560;2023-02-01T00:16:12;3.30;99.90
9193;DHT22;4631;49.296;10.560;2023-02-01T00:18:41;3.20;99.90
9193;DHT22;4631;49.296;10.560;2023-02-01T00:21:09;3.30;99.90
9193;DHT22;4631;49.296;10.560;2023-02-01T00:23:37;3.40;99.90
9193;DHT22;4631;49.296;10.560;2023-02-01T00:26:06;3.30;99.90
9193;DHT22;4631;49.296;10.560;2023-02-01T00:28:33;3.40;99.90
9193;DHT22;4631;49.296;10.560;2023-02-01T00:31:00;3.40;99.90
9193;DHT22;4631;49.296;10.560;2023-02-01T00:33:27;3.40;99.90
9193;DHT22;4631;49.296;10.560;2023-02-01T00:35:55;3.40;99.90
9193;DHT22;4631;49.296;10.560;2023-02-01T00:38:22;3.40;99.90
9193;DHT22;4631;49.296;10.560;2023-02-01T00:40:50;3.40;99.90
9193;DHT22;4631;49.296;10.560;2023-02-01T00:43:17;3.40;99.90
9193;DHT22;4631;49.296;10.560;2023-02-01T00:45:44;3.40;99.90
9193;DHT22;4631;49.296;10.560;2023-02-01T00:48:11;3.50;99.90
9193;DHT22;4631;49.296;10.560;2023-02-01T00:50:40;3.50;99.90
9193;DHT22;4631;49.296;10.560;2023-02-01T00:53:08;3.50;99.90
9193;DHT22;4631;49.296;10.560;2023-02-01T00:55:34;3.50;99.90
9193;DHT22;4631;49.296;10.560;2023-02-01T00:58:02;3.50;99.90
9193;DHT22;4631;49.296;10.560;2023-02-01T01:00:31;3.50;99.90
9193;DHT22;4631;49.296;10.560;2023-02-01T01:02:57;3.50;99.90
9193;DHT22;4631;49.296;10.560;2023-02-01T01:05:24;3.50;99.90
9193;DHT22;4631;49.296;10.560;2023-02-01T01:07:52;3.50;99.90
9193;DHT22;4631;49.296;10.560;2023-02-01T01:10:19;3.50;99.90
9193;DHT22;4631;49.296;10.560;2023-02-01T01:12:46;3.50;99.90
9193;DHT22;4631;49.296;10.560;2023-02-01T01:15:14;3.50;99.90
9193;DHT22;4631;49.296;10.560;2023-02-01T01:17:41;3.40;99.90
9193;DHT22;4631;49.296;10.560;2023-02-01T01:20:08;3.40;99.90
9193;DHT22;4631;49.296;10.560;2023-02-01T01:22:35;3.50;99.90
9193;DHT22;4631;49.296;10.560;2023-02-01T01:25:01;3.50;99.90
9193;DHT22;4631;49.296;10.560;2023-02-01T01:27:28;3.50;99.90
9193;DHT22;4631;49.296;10.560;2023-02-01T01:29:55;3.50;99.90
9193;DHT22;4631;49.296;10.560;2023-02-01T01:32:23;3.50;99.90
9193;DHT22;4631;49.296;10.560;2023-02-01T01:34:49;3.50;99.90
9193;DHT22;4631;49.296;10.560;2023-02-01T01:37:16;3.50;99.90
9193;DHT22;4631;49.296;10.560;2023-02-01T01:39:49;3.40;99.90
9193;DHT22;4631;49.296;10.560;2023-02-01T01:42:16;3.40;99.90
9193;DHT22;4631;49.296;10.560;2023-02-01T01:44:56;3.40;99.90
9193;DHT22;4631;49.296;10.560;2023-02-01T01:47:25;3.40;99.90
9193;DHT22;4631;49.296;10.560;2023-02-01T01:49:53;3.40;99.90
9193;DHT22;4631;49.296;10.560;2023-02-01T01:52:20;3.40;99.90
9193;DHT22;4631;49.296;10.560;2023-02-01T01:54:47;3.40;99.90
9193;DHT22;4631;49.296;10.560;2023-02-01T01:57:16;3.40;99.90
9193;DHT22;4631;49.296;10.560;2023-02-01T01:59:46;3.50;99.90
9193;DHT22;4631;49.296;10.560;2023-02-01T02:02:13;3.50;99.90
9193;DHT22;4631;49.296;10.560;2023-02-01T02:04:42;3.50;99.90
9193;DHT22;4631;49.296;10.560;2023-02-01T02:07:09;3.50;99.90
9193;DHT22;4631;49.296;10.560;2023-02-01T02:09:37;3.50;99.90
9193;DHT22;4631;49.296;10.560;2023-02-01T02:12:04;3.50;99.90
9193;DHT22;4631;49.296;10.560;2023-02-01T02:14:30;3.50;99.90
9193;DHT22;4631;49.296;10.560;2023-02-01T02:17:00;3.50;99.90
9193;DHT22;4631;49.296;10.560;2023-02-01T02:22:23;3.50;99.90
9193;DHT22;4631;49.296;10.560;2023-02-01T02:25:01;3.50;99.90
9193;DHT22;4631;49.296;10.560;2023-02-01T02:27:35;3.50;99.90
9193;DHT22;4631;49.296;10.560;2023-02-01T02:35:31;3.50;99.90
9193;DHT22;4631;49.296;10.560;2023-02-01T02:38:02;3.50;99.90
9193;DHT22;4631;49.296;10.560;2023-02-01T02:40:34;3.50;99.90
9193;DHT22;4631;49.296;10.560;2023-02-01T02:43:04;3.50;99.90
9193;DHT22;4631;49.296;10.560;2023-02-01T02:45:51;3.50;99.90
9193;DHT22;4631;49.296;10.560;2023-02-01T02:48:41;3.50;99.90
9193;DHT22;4631;49.296;10.560;2023-02-01T02:51:11;3.50;99.90
9193;DHT22;4631;49.296;10.560;2023-02-01T02:54:09;3.50;99.90
9193;DHT22;4631;49.296;10.560;2023-02-01T02:56:55;3.50;99.90
9193;DHT22;4631;49.296;10.560;2023-02-01T02:59:40;3.50;99.90
9193;DHT22;4631;49.296;10.560;2023-02-01T03:02:27;3.50;99.90
9193;DHT22;4631;49.296;10.560;2023-02-01T03:05:11;3.50;99.90
9193;DHT22;4631;49.296;10.560;2023-02-01T03:07:47;3.50;99.90
9193;DHT22;4631;49.296;10.560;2023-02-01T03:10:16;3.50;99.90
9193;DHT22;4631;49.296;10.560;2023-02-01T03:12:44;3.50;99.90
9193;DHT22;4631;49.296;10.560;2023-02-01T03:15:22;3.50;99.90
9193;DHT22;4631;49.296;10.560;2023-02-01T03:17:51;3.50;99.90
9193;DHT22;4631;49.296;10.560;2023-02-01T03:20:20;3.50;99.90
9193;DHT22;4631;49.296;10.560;2023-02-01T03:22:48;3.50;99.90
9193;DHT22;4631;49.296;10.560;2023-02-01T03:25:18;3.50;99.90
9193;DHT22;4631;49.296;10.560;2023-02-01T03:27:47;3.50;99.90
9193;DHT22;4631;49.296;10.560;2023-02-01T03:30:16;3.50;99.90
9193;DHT22;4631;49.296;10.560;2023-02-01T03:32:45;3.50;99.90
9193;DHT22;4631;49.296;10.560;2023-02-01T03:35:29;3.50;99.90
9193;DHT22;4631;49.296;10.560;2023-02-01T03:38:01;3.50;99.90
9193;DHT22;4631;49.296;10.560;2023-02-01T03:40:30;3.50;99.90
9193;DHT22;4631;49.296;10.560;2023-02-01T03:42:59;3.50;99.90
9193;DHT22;4631;49.296;10.560;2023-02-01T03:45:27;3.50;99.90
9193;DHT22;4631;49.296;10.560;2023-02-01T03:47:55;3.50;99.90
9193;DHT22;4631;49.296;10.560;2023-02-01T03:50:25;3.50;99.90
9193;DHT22;4631;49.296;10.560;2023-02-01T03:52:53;3.50;99.90
9193;DHT22;4631;49.296;10.560;2023-02-01T03:55:22;3.50;99.90
9193;DHT22;4631;49.296;10.560;2023-02-01T03:57:50;3.50;99.90
9193;DHT22;4631;49.296;10.560;2023-02-01T04:00:19;3.50;99.90
9193;DHT22;4631;49.296;10.560;2023-02-01T04:02:47;3.50;99.90
9193;DHT22;4631;49.296;10.560;2023-02-01T04:05:13;3.50;99.90
9193;DHT22;4631;49.296;10.560;2023-02-01T04:07:40;3.50;99.90
9193;DHT22;4631;49.296;10.560;2023-02-01T04:10:07;3.50;99.90
9193;DHT22;4631;49.296;10.560;2023-02-01T04:12:36;3.60;99.90
9193;DHT22;4631;49.296;10.560;2023-02-01T04:15:02;3.50;99.90
9193;DHT22;4631;49.296;10.560;2023-02-01T04:17:29;3.50;99.90
9193;DHT22;4631;49.296;10.560;2023-02-01T04:19:56;3.50;99.90
9193;DHT22;4631;49.296;10.560;2023-02-01T04:22:23;3.50;99.90
9193;DHT22;4631;49.296;10.560;2023-02-01T04:24:49;3.50;99.90
9193;DHT22;4631;49.296;10.560;2023-02-01T04:27:16;3.60;99.90
9193;DHT22;4631;49.296;10.560;2023-02-01T04:29:44;3.50;99.90
9193;DHT22;4631;49.296;10.560;2023-02-01T04:32:11;3.60;99.90
9193;DHT22;4631;49.296;10.560;2023-02-01T04:34:38;3.60;99.90
9193;DHT22;4631;49.296;10.560;2023-02-01T04:37:04;3.60;99.90
9193;DHT22;4631;49.296;10.560;2023-02-01T04:39:31;3.70;99.90
9193;DHT22;4631;49.296;10.560;2023-02-01T04:41:57;3.60;99.90
9193;DHT22;4631;49.296;10.560;2023-02-01T04:44:24;3.60;99.90
9193;DHT22;4631;49.296;10.560;2023-02-01T04:46:52;3.60;99.90
9193;DHT22;4631;49.296;10.560;2023-02-01T04:49:19;3.60;99.90
9193;DHT22;4631;49.296;10.560;2023-02-01T04:51:46;3.70;99.90
9193;DHT22;4631;49.296;10.560;2023-02-01T04:54:13;3.60;99.90
9193;DHT22;4631;49.296;10.560;2023-02-01T04:56:40;3.70;99.90
9193;DHT22;4631;49.296;10.560;2023-02-01T04:59:06;3.70;99.90
9193;DHT22;4631;49.296;10.560;2023-02-01T05:01:33;3.70;99.90
9193;DHT22;4631;49.296;10.560;2023-02-01T05:04:01;3.70;99.90
9193;DHT22;4631;49.296;10.560;2023-02-01T05:06:27;3.70;99.90
9193;DHT22;4631;49.296;10.560;2023-02-01T05:08:54;3.70;99.90
9193;DHT22;4631;49.296;10.560;2023-02-01T05:11:21;3.80;99.90
9193;DHT22;4631;49.296;10.560;2023-02-01T05:14:05;3.80;99.90
9193;DHT22;4631;49.296;10.560;2023-02-01T05:16:32;3.80;99.90
9193;DHT22;4631;49.296;10.560;2023-02-01T05:18:58;3.80;99.90
9193;DHT22;4631;49.296;10.560;2023-02-01T05:21:26;3.80;99.90
9193;DHT22;4631;49.296;10.560;2023-02-01T05:23:53;3.80;99.90
9193;DHT22;4631;49.296;10.560;2023-02-01T05:26:41;3.80;99.90
9193;DHT22;4631;49.296;10.560;2023-02-01T05:29:09;3.80;99.90
9193;DHT22;4631;49.296;10.560;2023-02-01T05:31:35;3.90;99.90
9193;DHT22;4631;49.296;10.560;2023-02-01T05:34:02;3.90;99.90
9193;DHT22;4631;49.296;10.560;2023-02-01T05:36:31;3.90;99.90
9193;DHT22;4631;49.296;10.560;2023-02-01T05:38:58;3.90;99.90
9193;DHT22;4631;49.296;10.560;2023-02-01T05:41:24;3.90;99.90
9193;DHT22;4631;49.296;10.560;2023-02-01T05:43:51;3.90;99.90
9193;DHT22;4631;49.296;10.560;2023-02-01T05:46:18;4.00;99.90
9193;DHT22;4631;49.296;10.560;2023-02-01T05:48:44;3.90;99.90
9193;DHT22;4631;49.296;10.560;2023-02-01T05:51:11;4.00;99.90
9193;DHT22;4631;49.296;10.560;2023-02-01T05:53:39;3.90;99.90
9193;DHT22;4631;49.296;10.560;2023-02-01T05:56:06;4.00;99.90
9193;DHT22;4631;49.296;10.560;2023-02-01T05:58:33;3.90;99.90
9193;DHT22;4631;49.296;10.560;2023-02-01T06:00:59;3.90;99.90
9193;DHT22;4631;49.296;10.560;2023-02-01T06:03:26;4.00;99.90
9193;DHT22;4631;49.296;10.560;2023-02-01T06:05:53;4.00;99.90
9193;DHT22;4631;49.296;10.560;2023-02-01T06:08:19;4.00;99.90
9193;DHT22;4631;49.296;10.560;2023-02-01T06:10:47;4.10;99.90
9193;DHT22;4631;49.296;10.560;2023-02-01T06:13:14;4.10;99.90
9193;DHT22;4631;49.296;10.560;2023-02-01T06:15:41;4.00;99.90
9193;DHT22;4631;49.296;10.560;2023-02-01T06:18:09;4.00;99.90
9193;DHT22;4631;49.296;10.560;2023-02-01T06:20:35;3.90;99.90
9193;DHT22;4631;49.296;10.560;2023-02-01T06:23:02;3.90;99.90
9193;DHT22;4631;49.296;10.560;2023-02-01T06:25:30;3.80;99.90
9193;DHT22;4631;49.296;10.560;2023-02-01T06:28:00;3.70;99.90
9193;DHT22;4631;49.296;10.560;2023-02-01T06:32:57;3.60;99.90
9193;DHT22;4631;49.296;10.560;2023-02-01T06:35:23;3.60;99.90
9193;DHT22;4631;49.296;10.560;2023-02-01T06:37:51;3.50;99.90
9193;DHT22;4631;49.296;10.560;2023-02-01T06:40:18;3.50;99.90
9193;DHT22;4631;49.296;10.560;2023-02-01T06:42:44;3.50;99.90
9193;DHT22;4631;49.296;10.560;2023-02-01T06:45:13;3.40;99.90
9193;DHT22;4631;49.296;10.560;2023-02-01T06:47:40;3.40;99.90
9193;DHT22;4631;49.296;10.560;2023-02-01T06:50:08;3.40;99.90
9193;DHT22;4631;49.296;10.560;2023-02-01T06:52:35;3.40;99.90
9193;DHT22;4631;49.296;10.560;2023-02-01T06:55:01;3.40;99.90
9193;DHT22;4631;49.296;10.560;2023-02-01T06:57:28;3.40;99.90
9193;DHT22;4631;49.296;10.560;2023-02-01T06:59:56;3.30;99.90
9193;DHT22;4631;49.296;10.560;2023-02-01T07:02:25;3.40;99.90
9193;DHT22;4631;49.296;10.560;2023-02-01T07:04:51;3.30;99.90
9193;DHT22;4631;49.296;10.560;2023-02-01T07:07:18;3.40;99.90
9193;DHT22;4631;49.296;10.560;2023-02-01T07:09:47;3.30;99.90
9193;DHT22;4631;49.296;10.560;2023-02-01T07:12:14;3.30;99.90
9193;DHT22;4631;49.296;10.560;2023-02-01T07:14:41;3.20;99.90
9193;DHT22;4631;49.296;10.560;2023-02-01T07:17:07;3.20;99.90
9193;DHT22;4631;49.296;10.560;2023-02-01T07:19:35;3.20;99.90
9193;DHT22;4631;49.296;10.560;2023-02-01T07:22:02;3.20;99.90
9193;DHT22;4631;49.296;10.560;2023-02-01T07:24:28;3.30;99.90
9193;DHT22;4631;49.296;10.560;2023-02-01T07:26:56;3.30;99.90
9193;DHT22;4631;49.296;10.560;2023-02-01T07:29:23;3.30;99.90
9193;DHT22;4631;49.296;10.560;2023-02-01T07:31:49;3.30;99.90
9193;DHT22;4631;49.296;10.560;2023-02-01T07:34:16;3.30;99.90
9193;DHT22;4631;49.296;10.560;2023-02-01T07:36:44;3.30;99.90
9193;DHT22;4631;49.296;10.560;2023-02-01T07:39:11;3.20;99.90
9193;DHT22;4631;49.296;10.560;2023-02-01T07:41:37;3.20;99.90
9193;DHT22;4631;49.296;10.560;2023-02-01T07:46:47;3.20;99.90
9193;DHT22;4631;49.296;10.560;2023-02-01T07:49:14;3.20;99.90
9193;DHT22;4631;49.296;10.560;2023-02-01T07:51:42;3.20;99.90
9193;DHT22;4631;49.296;10.560;2023-02-01T07:54:10;3.20;99.90
9193;DHT22;4631;49.296;10.560;2023-02-01T07:56:37;3.20;99.90
9193;DHT22;4631;49.296;10.560;2023-02-01T07:59:03;3.30;99.90
9193;DHT22;4631;49.296;10.560;2023-02-01T08:01:32;3.30;99.90
9193;DHT22;4631;49.296;10.560;2023-02-01T08:03:58;3.30;99.90
9193;DHT22;4631;49.296;10.560;2023-02-01T08:06:25;3.30;99.90
9193;DHT22;4631;49.296;10.560;2023-02-01T08:08:52;3.30;99.90
9193;DHT22;4631;49.296;10.560;2023-02-01T08:11:22;3.30;99.90
9193;DHT22;4631;49.296;10.560;2023-02-01T08:13:49;3.40;99.90
9193;DHT22;4631;49.296;10.560;2023-02-01T08:16:16;3.40;99.90
9193;DHT22;4631;49.296;10.560;2023-02-01T08:18:43;3.40;99.90
9193;DHT22;4631;49.296;10.560;2023-02-01T08:21:10;3.50;99.90
9193;DHT22;4631;49.296;10.560;2023-02-01T08:23:38;3.50;99.90
9193;DHT22;4631;49.296;10.560;2023-02-01T08:26:09;3.50;99.90
9193;DHT22;4631;49.296;10.560;2023-02-01T08:28:38;3.50;99.90
9193;DHT22;4631;49.296;10.560;2023-02-01T08:31:06;3.60;99.90
9193;DHT22;4631;49.296;10.560;2023-02-01T08:33:32;3.60;99.90
9193;DHT22;4631;49.296;10.560;2023-02-01T08:36:00;3.60;99.90
9193;DHT22;4631;49.296;10.560;2023-02-01T08:38:26;3.70;99.90
9193;DHT22;4631;49.296;10.560;2023-02-01T08:40:53;3.70;99.90
9193;DHT22;4631;49.296;10.560;2023-02-01T08:43:20;3.70;99.90
9193;DHT22;4631;49.296;10.560;2023-02-01T08:45:48;3.70;99.90
9193;DHT22;4631;49.296;10.560;2023-02-01T08:48:15;3.70;99.90
9193;DHT22;4631;49.296;10.560;2023-02-01T08:50:42;3.80;99.90
9193;DHT22;4631;49.296;10.560;2023-02-01T08:53:09;3.80;99.90
9193;DHT22;4631;49.296;10.560;2023-02-01T08:55:37;3.80;99.90
9193;DHT22;4631;49.296;10.560;2023-02-01T08:58:04;3.90;99.90
9193;DHT22;4631;49.296;10.560;2023-02-01T09:00:30;3.90;99.90
9193;DHT22;4631;49.296;10.560;2023-02-01T09:02:58;3.90;99.90
9193;DHT22;4631;49.296;10.560;2023-02-01T09:05:25;4.00;99.90
9193;DHT22;4631;49.296;10.560;2023-02-01T09:07:53;4.10;99.90
9193;DHT22;4631;49.296;10.560;2023-02-01T09:10:19;4.10;99.90
9193;DHT22;4631;49.296;10.560;2023-02-01T09:12:46;4.10;99.90
9193;DHT22;4631;49.296;10.560;2023-02-01T09:15:13;4.00;99.90
9193;DHT22;4631;49.296;10.560;2023-02-01T09:17:39;4.10;99.90
9193;DHT22;4631;49.296;10.560;2023-02-01T09:20:09;4.10;99.90
9193;DHT22;4631;49.296;10.560;2023-02-01T09:22:35;4.10;99.90
9193;DHT22;4631;49.296;10.560;2023-02-01T09:25:02;4.10;99.90
9193;DHT22;4631;49.296;10.560;2023-02-01T09:27:29;4.10;99.90
9193;DHT22;4631;49.296;10.560;2023-02-01T09:29:56;4.10;99.90
9193;DHT22;4631;49.296;10.560;2023-02-01T09:32:24;4.10;99.90
9193;DHT22;4631;49.296;10.560;2023-02-01T09:34:51;4.10;99.90
9193;DHT22;4631;49.296;10.560;2023-02-01T09:37:19;4.20;99.90
9193;DHT22;4631;49.296;10.560;2023-02-01T09:39:46;4.20;99.90
9193;DHT22;4631;49.296;10.560;2023-02-01T09:42:19;4.20;99.90
9193;DHT22;4631;49.296;10.560;2023-02-01T09:44:50;4.30;99.90
9193;DHT22;4631;49.296;10.560;2023-02-01T09:47:18;4.40;99.90
9193;DHT22;4631;49.296;10.560;2023-02-01T09:49:48;4.40;99.90
9193;DHT22;4631;49.296;10.560;2023-02-01T09:52:20;4.40;99.90
9193;DHT22;4631;49.296;10.560;2023-02-01T09:54:51;4.40;99.90
9193;DHT22;4631;49.296;10.560;2023-02-01T09:57:23;4.40;99.90
9193;DHT22;4631;49.296;10.560;2023-02-01T09:59:52;4.40;99.90
9193;DHT22;4631;49.296;10.560;2023-02-01T10:02:20;4.30;99.90
9193;DHT22;4631;49.296;10.560;2023-02-01T10:04:48;4.40;99.90
9193;DHT22;4631;49.296;10.560;2023-02-01T10:07:22;4.40;99.90
9193;DHT22;4631;49.296;10.560;2023-02-01T10:09:54;4.40;99.90
9193;DHT22;4631;49.296;10.560;2023-02-01T10:15:19;4.50;99.90
9193;DHT22;4631;49.296;10.560;2023-02-01T10:17:52;4.50;99.90
9193;DHT22;4631;49.296;10.560;2023-02-01T10:20:22;4.50;99.90
9193;DHT22;4631;49.296;10.560;2023-02-01T10:22:54;4.60;99.90
9193;DHT22;4631;49.296;10.560;2023-02-01T10:25:26;4.60;99.90
9193;DHT22;4631;49.296;10.560;2023-02-01T10:27:53;4.60;99.90
9193;DHT22;4631;49.296;10.560;2023-02-01T10:30:21;4.70;99.90
9193;DHT22;4631;49.296;10.560;2023-02-01T10:32:49;4.70;99.90
9193;DHT22;4631;49.296;10.560;2023-02-01T10:35:18;4.80;99.90
9193;DHT22;4631;49.296;10.560;2023-02-01T10:37:50;4.70;99.90
9193;DHT22;4631;49.296;10.560;2023-02-01T10:40:19;4.80;99.90
9193;DHT22;4631;49.296;10.560;2023-02-01T10:42:47;4.90;99.90
9193;DHT22;4631;49.296;10.560;2023-02-01T10:45:14;4.90;99.90
9193;DHT22;4631;49.296;10.560;2023-02-01T10:47:41;4.90;99.90
9193;DHT22;4631;49.296;10.560;2023-02-01T10:50:13;5.10;99.90
9193;DHT22;4631;49.296;10.560;2023-02-01T10:52:43;5.20;99.90
9193;DHT22;4631;49.296;10.560;2023-02-01T10:57:56;5.40;99.90
9193;DHT22;4631;49.296;10.560;2023-02-01T11:00:24;5.30;99.90
9193;DHT22;4631;49.296;10.560;2023-02-01T11:02:50;5.30;99.90
9193;DHT22;4631;49.296;10.560;2023-02-01T11:05:17;5.20;99.90
9193;DHT22;4631;49.296;10.560;2023-02-01T11:07:46;5.20;99.90
9193;DHT22;4631;49.296;10.560;2023-02-01T11:10:33;5.10;99.90
9193;DHT22;4631;49.296;10.560;2023-02-01T11:13:02;5.00;99.90
9193;DHT22;4631;49.296;10.560;2023-02-01T11:15:29;5.20;99.90
9193;DHT22;4631;49.296;10.560;2023-02-01T11:17:56;5.20;99.90
9193;DHT22;4631;49.296;10.560;2023-02-01T11:20:34;5.20;99.90
9193;DHT22;4631;49.296;10.560;2023-02-01T11:23:03;5.20;99.90
9193;DHT22;4631;49.296;10.560;2023-02-01T11:25:36;5.20;99.90
9193;DHT22;4631;49.296;10.560;2023-02-01T11:28:05;5.10;99.90
9193;DHT22;4631;49.296;10.560;2023-02-01T11:30:32;5.00;99.90
9193;DHT22;4631;49.296;10.560;2023-02-01T11:33:01;4.80;99.90
9193;DHT22;4631;49.296;10.560;2023-02-01T11:35:28;4.70;99.90
9193;DHT22;4631;49.296;10.560;2023-02-01T11:37:57;4.50;99.90
9193;DHT22;4631;49.296;10.560;2023-02-01T11:40:34;4.50;99.90
9193;DHT22;4631;49.296;10.560;2023-02-01T11:43:07;4.50;99.90
9193;DHT22;4631;49.296;10.560;2023-02-01T11:45:35;4.50;99.90
9193;DHT22;4631;49.296;10.560;2023-02-01T11:48:07;4.50;99.90
9193;DHT22;4631;49.296;10.560;2023-02-01T11:50:36;4.40;99.90
9193;DHT22;4631;49.296;10.560;2023-02-01T11:55:56;4.30;99.90
9193;DHT22;4631;49.296;10.560;2023-02-01T11:58:41;4.30;99.90
9193;DHT22;4631;49.296;10.560;2023-02-01T12:01:17;4.30;99.90
9193;DHT22;4631;49.296;10.560;2023-02-01T12:03:55;4.40;99.90
9193;DHT22;4631;49.296;10.560;2023-02-01T12:06:31;4.40;99.90
9193;DHT22;4631;49.296;10.560;2023-02-01T12:09:08;4.40;99.90
9193;DHT22;4631;49.296;10.560;2023-02-01T12:11:41;4.50;99.90
9193;DHT22;4631;49.296;10.560;2023-02-01T12:14:14;4.50;99.90
9193;DHT22;4631;49.296;10.560;2023-02-01T12:16:48;4.50;99.90
9193;DHT22;4631;49.296;10.560;2023-02-01T12:19:25;4.50;99.90
9193;DHT22;4631;49.296;10.560;2023-02-01T12:21:56;4.50;99.90
9193;DHT22;4631;49.296;10.560;2023-02-01T12:24:33;4.50;99.90
9193;DHT22;4631;49.296;10.560;2023-02-01T12:27:06;4.40;99.90
9193;DHT22;4631;49.296;10.560;2023-02-01T12:29:45;4.30;99.90
9193;DHT22;4631;49.296;10.560;2023-02-01T12:32:23;4.20;99.90
9193;DHT22;4631;49.296;10.560;2023-02-01T12:34:59;4.20;99.90
9193;DHT22;4631;49.296;10.560;2023-02-01T12:37:31;4.20;99.90
9193;DHT22;4631;49.296;10.560;2023-02-01T12:40:05;4.30;99.90
9193;DHT22;4631;49.296;10.560;2023-02-01T12:42:36;4.30;99.90
9193;DHT22;4631;49.296;10.560;2023-02-01T12:45:09;4.30;99.90
9193;DHT22;4631;49.296;10.560;2023-02-01T12:47:39;4.40;99.90
9193;DHT22;4631;49.296;10.560;2023-02-01T12:50:14;4.40;99.90
9193;DHT22;4631;49.296;10.560;2023-02-01T12:52:44;4.40;99.90
9193;DHT22;4631;49.296;10.560;2023-02-01T12:55:15;4.40;99.90
9193;DHT22;4631;49.296;10.560;2023-02-01T12:57:45;4.30;99.90
9193;DHT22;4631;49.296;10.560;2023-02-01T13:02:42;4.30;99.90
9193;DHT22;4631;49.296;10.560;2023-02-01T13:05:15;4.20;99.90
9193;DHT22;4631;49.296;10.560;2023-02-01T13:07:44;4.20;99.90
9193;DHT22;4631;49.296;10.560;2023-02-01T13:10:12;4.00;99.90
9193;DHT22;4631;49.296;10.560;2023-02-01T13:12:43;3.90;99.90
9193;DHT22;4631;49.296;10.560;2023-02-01T13:15:12;3.80;99.90
9193;DHT22;4631;49.296;10.560;2023-02-01T13:17:43;3.80;99.90
9193;DHT22;4631;49.296;10.560;2023-02-01T13:20:15;3.80;99.90
9193;DHT22;4631;49.296;10.560;2023-02-01T13:22:43;3.70;99.90
9193;DHT22;4631;49.296;10.560;2023-02-01T13:25:12;3.80;99.90
9193;DHT22;4631;49.296;10.560;2023-02-01T13:27:39;3.80;99.90
9193;DHT22;4631;49.296;10.560;2023-02-01T13:30:07;3.80;99.90
9193;DHT22;4631;49.296;10.560;2023-02-01T13:32:48;3.90;99.90
9193;DHT22;4631;49.296;10.560;2023-02-01T13:38:10;3.90;99.90
9193;DHT22;4631;49.296;10.560;2023-02-01T13:40:41;3.90;99.90
9193;DHT22;4631;49.296;10.560;2023-02-01T13:43:11;4.00;99.90
9193;DHT22;4631;49.296;10.560;2023-02-01T13:45:42;4.00;99.90
9193;DHT22;4631;49.296;10.560;2023-02-01T13:48:17;4.00;99.90
9193;DHT22;4631;49.296;10.560;2023-02-01T13:50:49;4.00;99.90
9193;DHT22;4631;49.296;10.560;2023-02-01T13:53:17;4.10;99.90
9193;DHT22;4631;49.296;10.560;2023-02-01T13:55:46;4.10;99.90
9193;DHT22;4631;49.296;10.560;2023-02-01T13:58:18;4.10;99.90
9193;DHT22;4631;49.296;10.560;2023-02-01T14:00:45;4.00;99.90
9193;DHT22;4631;49.296;10.560;2023-02-01T14:03:17;3.90;99.90
9193;DHT22;4631;49.296;10.560;2023-02-01T14:05:57;3.90;99.90
9193;DHT22;4631;49.296;10.560;2023-02-01T14:08:36;3.80;99.90
9193;DHT22;4631;49.296;10.560;2023-02-01T14:11:03;3.80;99.90
9193;DHT22;4631;49.296;10.560;2023-02-01T14:13:31;3.80;99.90
9193;DHT22;4631;49.296;10.560;2023-02-01T14:18:54;3.80;99.90
9193;DHT22;4631;49.296;10.560;2023-02-01T14:21:24;3.90;99.90
9193;DHT22;4631;49.296;10.560;2023-02-01T14:23:55;3.90;99.90
9193;DHT22;4631;49.296;10.560;2023-02-01T14:26:23;4.00;99.90
9193;DHT22;4631;49.296;10.560;2023-02-01T14:28:56;4.00;99.90
9193;DHT22;4631;49.296;10.560;2023-02-01T14:31:34;4.00;99.90
9193;DHT22;4631;49.296;10.560;2023-02-01T14:34:04;4.10;99.90
9193;DHT22;4631;49.296;10.560;2023-02-01T14:36:40;4.10;99.90
9193;DHT22;4631;49.296;10.560;2023-02-01T14:39:18;4.10;99.90
9193;DHT22;4631;49.296;10.560;2023-02-01T14:41:45;4.20;99.90
9193;DHT22;4631;49.296;10.560;2023-02-01T14:44:13;4.20;99.90
9193;DHT22;4631;49.296;10.560;2023-02-01T14:49:39;4.20;99.90
9193;DHT22;4631;49.296;10.560;2023-02-01T14:52:10;4.20;99.90
9193;DHT22;4631;49.296;10.560;2023-02-01T14:54:38;4.20;99.90
9193;DHT22;4631;49.296;10.560;2023-02-01T14:57:08;4.20;99.90
9193;DHT22;4631;49.296;10.560;2023-02-01T14:59:37;4.20;99.90
9193;DHT22;4631;49.296;10.560;2023-02-01T15:02:07;4.20;99.90
9193;DHT22;4631;49.296;10.560;2023-02-01T15:04:44;4.30;99.90
9193;DHT22;4631;49.296;10.560;2023-02-01T15:07:11;4.30;99.90
9193;DHT22;4631;49.296;10.560;2023-02-01T15:09:42;4.30;99.90
9193;DHT22;4631;49.296;10.560;2023-02-01T15:12:14;4.30;99.90
9193;DHT22;4631;49.296;10.560;2023-02-01T15:14:43;4.30;99.90
9193;DHT22;4631;49.296;10.560;2023-02-01T15:17:17;4.30;99.90
9193;DHT22;4631;49.296;10.560;2023-02-01T15:19:53;4.30;99.90
9193;DHT22;4631;49.296;10.560;2023-02-01T15:22:20;4.30;99.90
9193;DHT22;4631;49.296;10.560;2023-02-01T15:24:51;4.30;99.90
9193;DHT22;4631;49.296;10.560;2023-02-01T15:27:18;4.30;99.90
9193;DHT22;4631;49.296;10.560;2023-02-01T15:29:44;4.30;99.90
9193;DHT22;4631;49.296;10.560;2023-02-01T15:34:54;4.30;99.90
9193;DHT22;4631;49.296;10.560;2023-02-01T15:37:21;4.30;99.90
9193;DHT22;4631;49.296;10.560;2023-02-01T15:40:03;4.30;99.90
9193;DHT22;4631;49.296;10.560;2023-02-01T15:42:30;4.30;99.90
9193;DHT22;4631;49.296;10.560;2023-02-01T15:44:57;4.30;99.90
9193;DHT22;4631;49.296;10.560;2023-02-01T15:47:24;4.30;99.90
9193;DHT22;4631;49.296;10.560;2023-02-01T15:49:52;4.30;99.90
9193;DHT22;4631;49.296;10.560;2023-02-01T15:52:22;4.30;99.90
9193;DHT22;4631;49.296;10.560;2023-02-01T15:54:51;4.30;99.90
9193;DHT22;4631;49.296;10.560;2023-02-01T15:57:22;4.30;99.90
9193;DHT22;4631;49.296;10.560;2023-02-01T15:59:55;4.30;99.90
9193;DHT22;4631;49.296;10.560;2023-02-01T16:02:25;4.30;99.90
9193;DHT22;4631;49.296;10.560;2023-02-01T16:04:51;4.30;99.90
9193;DHT22;4631;49.296;10.560;2023-02-01T16:07:26;4.30;99.90
9193;DHT22;4631;49.296;10.560;2023-02-01T16:09:55;4.30;99.90
9193;DHT22;4631;49.296;10.560;2023-02-01T16:12:26;4.30;99.90
9193;DHT22;4631;49.296;10.560;2023-02-01T16:14:54;4.30;99.90
9193;DHT22;4631;49.296;10.560;2023-02-01T16:17:21;4.20;99.90
9193;DHT22;4631;49.296;10.560;2023-02-01T16:19:47;4.20;99.90
9193;DHT22;4631;49.296;10.560;2023-02-01T16:22:14;4.20;99.90
9193;DHT22;4631;49.296;10.560;2023-02-01T16:24:42;4.20;99.90
9193;DHT22;4631;49.296;10.560;2023-02-01T16:27:09;4.20;99.90
9193;DHT22;4631;49.296;10.560;2023-02-01T16:29:35;4.20;99.90
9193;DHT22;4631;49.296;10.560;2023-02-01T16:32:02;4.20;99.90
9193;DHT22;4631;49.296;10.560;2023-02-01T16:34:29;4.20;99.90
9193;DHT22;4631;49.296;10.560;2023-02-01T16:37:02;4.20;99.90
9193;DHT22;4631;49.296;10.560;2023-02-01T16:39:29;4.20;99.90
9193;DHT22;4631;49.296;10.560;2023-02-01T16:41:59;4.20;99.90
9193;DHT22;4631;49.296;10.560;2023-02-01T16:44:26;4.10;99.90
9193;DHT22;4631;49.296;10.560;2023-02-01T16:46:53;4.20;99.90
9193;DHT22;4631;49.296;10.560;2023-02-01T16:49:20;4.20;99.90
9193;DHT22;4631;49.296;10.560;2023-02-01T16:51:47;4.20;99.90